sensor_id;sensor_type;location;lat;lon;timestamp;pressure;altitude;pressure_sealevel;temperature;humidity
44453;BME280;30155;52.164;21.236;2023-08-12T00:02:33;101185.92;;;12.46;64.40
44453;BME280;30155;52.164;21.236;2023-08-12T00:07:24;101183.89;;;12.39;64.41
44453;BME280;30155;52.164;21.236;2023-08-12T00:12:16;101185.88;;;12.32;64.46
44453;BME280;30155;52.164;21.236;2023-08-12T00:17:07;101185.73;;;12.24;64.53
44453;BME280;30155;52.164;21.236;2023-08-12T00:21:59;101187.31;;;12.15;64.78
44453;BME280;30155;52.164;21.236;2023-08-12T00:26:50;101189.09;;;12.08;64.93
44453;BME280;30155;52.164;21.236;2023-08-12T00:31:42;101187.45;;;12.04;65.02
44453;BME280;30155;52.164;21.236;2023-08-12T00:36:33;101190.83;;;11.98;65.13
44453;BME280;30155;52.164;21.236;2023-08-12T00:41:25;101185.09;;;11.90;65.25
44453;BME280;30155;52.164;21.236;2023-08-12T00:46:17;101184.79;;;11.84;65.31
44453;BME280;30155;52.164;21.236;2023-08-12T00:51:08;101184.53;;;11.80;65.51
44453;BME280;30155;52.164;21.236;2023-08-12T00:56:00;101179.05;;;11.74;65.51
44453;BME280;30155;52.164;21.236;2023-08-12T01:00:52;101185.00;;;11.68;65.48
44453;BME280;30155;52.164;21.236;2023-08-12T01:05:44;101178.91;;;11.59;65.72
44453;BME280;30155;52.164;21.236;2023-08-12T01:10:38;101178.77;;;11.52;65.93
44453;BME280;30155;52.164;21.236;2023-08-12T01:15:31;101172.95;;;11.48;65.92
44453;BME280;30155;52.164;21.236;2023-08-12T01:20:23;101175.09;;;11.41;66.01
44453;BME280;30155;52.164;21.236;2023-08-12T01:25:16;101173.26;;;11.37;65.96
44453;BME280;30155;52.164;21.236;2023-08-12T01:30:09;101168.60;;;11.30;66.12
44453;BME280;30155;52.164;21.236;2023-08-12T01:39:59;101174.27;;;11.11;66.44
44453;BME280;30155;52.164;21.236;2023-08-12T01:44:51;101173.32;;;11.08;66.56
44453;BME280;30155;52.164;21.236;2023-08-12T01:49:43;101173.24;;;11.04;66.77
44453;BME280;30155;52.164;21.236;2023-08-12T01:54:34;101172.13;;;11.01;66.80
44453;BME280;30155;52.164;21.236;2023-08-12T01:59:25;101173.33;;;10.93;66.76
44453;BME280;30155;52.164;21.236;2023-08-12T02:04:17;101171.89;;;10.83;66.99
44453;BME280;30155;52.164;21.236;2023-08-12T02:09:08;101175.73;;;10.77;67.08
44453;BME280;30155;52.164;21.236;2023-08-12T02:14:00;101176.02;;;10.74;67.10
44453;BME280;30155;52.164;21.236;2023-08-12T02:18:51;101179.50;;;10.67;67.17
44453;BME280;30155;52.164;21.236;2023-08-12T02:23:43;101179.17;;;10.60;67.34
44453;BME280;30155;52.164;21.236;2023-08-12T02:28:35;101176.62;;;10.56;67.37
44453;BME280;30155;52.164;21.236;2023-08-12T02:33:26;101178.16;;;10.54;67.57
44453;BME280;30155;52.164;21.236;2023-08-12T02:38:18;101176.94;;;10.47;67.48
44453;BME280;30155;52.164;21.236;2023-08-12T02:43:10;101173.06;;;10.38;67.42
44453;BME280;30155;52.164;21.236;2023-08-12T02:48:02;101175.44;;;10.36;67.65
44453;BME280;30155;52.164;21.236;2023-08-12T02:52:54;101184.79;;;10.30;67.74
44453;BME280;30155;52.164;21.236;2023-08-12T02:57:45;101188.27;;;10.23;67.74
44453;BME280;30155;52.164;21.236;2023-08-12T03:02:37;101195.48;;;10.15;67.93
44453;BME280;30155;52.164;21.236;2023-08-12T03:07:28;101202.70;;;10.06;67.98
44453;BME280;30155;52.164;21.236;2023-08-12T03:12:20;101206.64;;;10.04;68.15
44453;BME280;30155;52.164;21.236;2023-08-12T03:17:11;101206.48;;;10.05;68.33
44453;BME280;30155;52.164;21.236;2023-08-12T03:22:05;101209.33;;;10.01;68.25
44453;BME280;30155;52.164;21.236;2023-08-12T03:26:57;101214.97;;;9.99;68.30
44453;BME280;30155;52.164;21.236;2023-08-12T03:31:48;101218.50;;;10.01;68.47
44453;BME280;30155;52.164;21.236;2023-08-12T03:36:40;101219.42;;;10.03;68.43
44453;BME280;30155;52.164;21.236;2023-08-12T03:41:32;101219.08;;;10.03;68.48
44453;BME280;30155;52.164;21.236;2023-08-12T03:46:25;101219.56;;;10.02;68.56
44453;BME280;30155;52.164;21.236;2023-08-12T03:51:18;101218.16;;;10.01;68.49
44453;BME280;30155;52.164;21.236;2023-08-12T03:56:09;101220.04;;;10.06;68.66
44453;BME280;30155;52.164;21.236;2023-08-12T04:01:01;101220.48;;;10.10;68.79
44453;BME280;30155;52.164;21.236;2023-08-12T04:05:52;101222.08;;;10.12;68.80
44453;BME280;30155;52.164;21.236;2023-08-12T04:10:45;101218.67;;;10.20;68.81
44453;BME280;30155;52.164;21.236;2023-08-12T04:15:38;101218.26;;;10.24;68.85
44453;BME280;30155;52.164;21.236;2023-08-12T04:20:29;101219.06;;;10.35;68.71
44453;BME280;30155;52.164;21.236;2023-08-12T04:25:21;101221.77;;;10.52;68.59
44453;BME280;30155;52.164;21.236;2023-08-12T04:30:13;101222.14;;;10.53;68.80
44453;BME280;30155;52.164;21.236;2023-08-12T04:35:05;101221.67;;;10.54;69.07
44453;BME280;30155;52.164;21.236;2023-08-12T04:40:00;101221.52;;;10.55;69.28
44453;BME280;30155;52.164;21.236;2023-08-12T04:44:52;101220.96;;;10.54;69.16
44453;BME280;30155;52.164;21.236;2023-08-12T04:49:44;101223.67;;;10.58;69.48
44453;BME280;30155;52.164;21.236;2023-08-12T04:54:36;101226.58;;;10.63;69.70
44453;BME280;30155;52.164;21.236;2023-08-12T04:59:27;101220.79;;;10.68;69.78
44453;BME280;30155;52.164;21.236;2023-08-12T05:04:19;101218.89;;;10.76;70.13
44453;BME280;30155;52.164;21.236;2023-08-12T05:09:10;101216.61;;;10.82;70.30
44453;BME280;30155;52.164;21.236;2023-08-12T05:14:02;101216.55;;;10.94;70.73
44453;BME280;30155;52.164;21.236;2023-08-12T05:18:54;101210.10;;;11.08;71.01
44453;BME280;30155;52.164;21.236;2023-08-12T05:23:45;101207.96;;;11.21;71.20
44453;BME280;30155;52.164;21.236;2023-08-12T05:28:37;101201.17;;;11.35;71.42
44453;BME280;30155;52.164;21.236;2023-08-12T05:33:28;101199.78;;;11.52;71.68
44453;BME280;30155;52.164;21.236;2023-08-12T05:38:20;101196.33;;;11.70;71.89
44453;BME280;30155;52.164;21.236;2023-08-12T05:43:15;101192.19;;;11.89;71.95
44453;BME280;30155;52.164;21.236;2023-08-12T05:48:07;101190.70;;;12.11;71.93
44453;BME280;30155;52.164;21.236;2023-08-12T05:52:59;101188.52;;;12.35;71.77
44453;BME280;30155;52.164;21.236;2023-08-12T05:57:50;101187.25;;;12.63;71.77
44453;BME280;30155;52.164;21.236;2023-08-12T06:02:42;101181.41;;;12.91;71.55
44453;BME280;30155;52.164;21.236;2023-08-12T06:07:34;101183.50;;;13.26;71.26
44453;BME280;30155;52.164;21.236;2023-08-12T06:12:25;101174.56;;;13.64;70.91
44453;BME280;30155;52.164;21.236;2023-08-12T06:17:17;101175.00;;;14.03;70.47
44453;BME280;30155;52.164;21.236;2023-08-12T06:22:09;101172.66;;;14.52;69.83
44453;BME280;30155;52.164;21.236;2023-08-12T06:27:01;101171.65;;;16.21;67.36
44453;BME280;30155;52.164;21.236;2023-08-12T06:31:53;101167.98;;;17.61;65.55
44453;BME280;30155;52.164;21.236;2023-08-12T06:36:44;101169.75;;;19.57;62.95
44453;BME280;30155;52.164;21.236;2023-08-12T06:41:36;101170.66;;;21.23;61.00
44453;BME280;30155;52.164;21.236;2023-08-12T06:46:28;101170.16;;;21.48;60.05
44453;BME280;30155;52.164;21.236;2023-08-12T06:51:21;101176.36;;;21.29;59.22
44453;BME280;30155;52.164;21.236;2023-08-12T06:56:12;101166.63;;;22.55;57.12
44453;BME280;30155;52.164;21.236;2023-08-12T07:01:04;101165.56;;;23.64;55.37
44453;BME280;30155;52.164;21.236;2023-08-12T07:05:55;101159.94;;;25.47;52.35
44453;BME280;30155;52.164;21.236;2023-08-12T07:10:47;101157.16;;;26.52;50.46
44453;BME280;30155;52.164;21.236;2023-08-12T07:15:38;101150.79;;;27.90;47.72
44453;BME280;30155;52.164;21.236;2023-08-12T07:20:30;101151.71;;;28.26;45.60
44453;BME280;30155;52.164;21.236;2023-08-12T07:25:21;101154.86;;;27.90;44.21
44453;BME280;30155;52.164;21.236;2023-08-12T07:30:13;101153.17;;;26.76;43.83
44453;BME280;30155;52.164;21.236;2023-08-12T07:35:04;101153.27;;;27.36;42.67
44453;BME280;30155;52.164;21.236;2023-08-12T07:39:57;101152.85;;;29.52;39.42
44453;BME280;30155;52.164;21.236;2023-08-12T07:44:48;101143.79;;;32.47;37.37
44453;BME280;30155;52.164;21.236;2023-08-12T07:49:39;101137.87;;;31.34;37.39
44453;BME280;30155;52.164;21.236;2023-08-12T07:54:31;101136.35;;;30.85;36.63
44453;BME280;30155;52.164;21.236;2023-08-12T07:59:22;101135.83;;;30.70;34.80
44453;BME280;30155;52.164;21.236;2023-08-12T08:04:14;101133.80;;;29.53;34.95
44453;BME280;30155;52.164;21.236;2023-08-12T08:09:05;101128.83;;;29.74;34.42
44453;BME280;30155;52.164;21.236;2023-08-12T08:13:58;101121.04;;;29.58;35.30
44453;BME280;30155;52.164;21.236;2023-08-12T08:18:49;101117.81;;;28.76;34.30
44453;BME280;30155;52.164;21.236;2023-08-12T08:23:41;101115.57;;;27.74;34.70
44453;BME280;30155;52.164;21.236;2023-08-12T08:28:33;101115.63;;;27.36;36.02
44453;BME280;30155;52.164;21.236;2023-08-12T08:33:25;101114.62;;;26.46;36.67
44453;BME280;30155;52.164;21.236;2023-08-12T08:38:17;101110.41;;;25.53;37.47
44453;BME280;30155;52.164;21.236;2023-08-12T08:43:09;101112.58;;;24.95;37.05
44453;BME280;30155;52.164;21.236;2023-08-12T08:48:04;101104.86;;;24.37;36.70
44453;BME280;30155;52.164;21.236;2023-08-12T08:52:57;101102.34;;;24.07;37.72
44453;BME280;30155;52.164;21.236;2023-08-12T08:57:49;101097.38;;;23.84;38.22
44453;BME280;30155;52.164;21.236;2023-08-12T09:02:41;101094.61;;;23.88;37.85
44453;BME280;30155;52.164;21.236;2023-08-12T09:07:34;101092.00;;;23.87;37.14
44453;BME280;30155;52.164;21.236;2023-08-12T09:12:25;101088.35;;;23.79;37.61
44453;BME280;30155;52.164;21.236;2023-08-12T09:17:17;101085.14;;;23.80;38.29
44453;BME280;30155;52.164;21.236;2023-08-12T09:22:09;101080.61;;;23.89;38.68
44453;BME280;30155;52.164;21.236;2023-08-12T09:27:01;101074.60;;;24.09;38.82
44453;BME280;30155;52.164;21.236;2023-08-12T09:31:52;101072.53;;;24.65;37.73
44453;BME280;30155;52.164;21.236;2023-08-12T09:36:44;101063.45;;;24.95;37.26
44453;BME280;30155;52.164;21.236;2023-08-12T09:41:37;101064.83;;;24.87;37.75
44453;BME280;30155;52.164;21.236;2023-08-12T09:46:29;101069.29;;;24.62;37.75
44453;BME280;30155;52.164;21.236;2023-08-12T09:51:21;101070.29;;;24.47;37.78
44453;BME280;30155;52.164;21.236;2023-08-12T09:56:13;101063.94;;;24.47;37.79
44453;BME280;30155;52.164;21.236;2023-08-12T10:01:06;101051.95;;;25.14;38.33
44453;BME280;30155;52.164;21.236;2023-08-12T10:05:59;101049.92;;;25.78;38.03
44453;BME280;30155;52.164;21.236;2023-08-12T10:10:51;101037.10;;;28.82;34.55
44453;BME280;30155;52.164;21.236;2023-08-12T10:16:01;101035.29;;;32.30;31.54
44453;BME280;30155;52.164;21.236;2023-08-12T10:20:54;101023.22;;;34.60;29.28
44453;BME280;30155;52.164;21.236;2023-08-12T10:25:49;101020.98;;;36.23;28.31
44453;BME280;30155;52.164;21.236;2023-08-12T10:30:44;101018.06;;;37.33;27.27
44453;BME280;30155;52.164;21.236;2023-08-12T10:35:47;101014.53;;;37.76;25.36
44453;BME280;30155;52.164;21.236;2023-08-12T10:40:39;101013.37;;;38.06;24.93
44453;BME280;30155;52.164;21.236;2023-08-12T10:45:41;101012.73;;;38.45;25.79
44453;BME280;30155;52.164;21.236;2023-08-12T10:50:33;101009.23;;;38.72;25.07
44453;BME280;30155;52.164;21.236;2023-08-12T10:55:27;101004.45;;;38.91;24.61
44453;BME280;30155;52.164;21.236;2023-08-12T11:00:22;100997.82;;;38.97;24.30
44453;BME280;30155;52.164;21.236;2023-08-12T11:05:14;100992.84;;;38.82;23.72
44453;BME280;30155;52.164;21.236;2023-08-12T11:10:21;100990.71;;;38.70;24.00
44453;BME280;30155;52.164;21.236;2023-08-12T11:15:13;100986.58;;;38.19;23.60
44453;BME280;30155;52.164;21.236;2023-08-12T11:20:07;100983.63;;;37.85;23.75
44453;BME280;30155;52.164;21.236;2023-08-12T11:24:59;100981.55;;;37.30;23.78
44453;BME280;30155;52.164;21.236;2023-08-12T11:29:51;100977.22;;;36.91;23.53
44453;BME280;30155;52.164;21.236;2023-08-12T11:34:42;100978.07;;;36.62;23.84
44453;BME280;30155;52.164;21.236;2023-08-12T11:39:34;100975.85;;;35.85;23.98
44453;BME280;30155;52.164;21.236;2023-08-12T11:44:26;100963.88;;;35.13;25.65
44453;BME280;30155;52.164;21.236;2023-08-12T11:49:18;100964.45;;;34.46;26.24
44453;BME280;30155;52.164;21.236;2023-08-12T11:54:09;100958.16;;;33.50;26.48
44453;BME280;30155;52.164;21.236;2023-08-12T11:59:01;100956.28;;;32.65;27.11
44453;BME280;30155;52.164;21.236;2023-08-12T12:03:52;100957.34;;;31.89;27.38
44453;BME280;30155;52.164;21.236;2023-08-12T12:08:44;100952.84;;;31.41;28.33
44453;BME280;30155;52.164;21.236;2023-08-12T12:13:36;100946.98;;;31.24;28.60
44453;BME280;30155;52.164;21.236;2023-08-12T12:18:27;100945.14;;;31.11;28.30
44453;BME280;30155;52.164;21.236;2023-08-12T12:23:18;100939.59;;;30.97;28.41
44453;BME280;30155;52.164;21.236;2023-08-12T12:28:10;100938.00;;;30.89;28.87
44453;BME280;30155;52.164;21.236;2023-08-12T12:33:01;100928.08;;;30.65;28.90
44453;BME280;30155;52.164;21.236;2023-08-12T12:37:53;100923.06;;;30.59;29.61
44453;BME280;30155;52.164;21.236;2023-08-12T12:42:44;100921.02;;;30.61;30.28
44453;BME280;30155;52.164;21.236;2023-08-12T12:47:36;100917.36;;;30.48;28.74
44453;BME280;30155;52.164;21.236;2023-08-12T12:52:28;100914.14;;;30.51;29.32
44453;BME280;30155;52.164;21.236;2023-08-12T12:57:19;100908.43;;;30.73;29.86
44453;BME280;30155;52.164;21.236;2023-08-12T13:02:11;100907.57;;;30.69;30.06
44453;BME280;30155;52.164;21.236;2023-08-12T13:07:03;100912.77;;;30.58;30.63
44453;BME280;30155;52.164;21.236;2023-08-12T13:11:54;100902.95;;;30.52;29.47
44453;BME280;30155;52.164;21.236;2023-08-12T13:16:47;100899.25;;;30.37;28.89
44453;BME280;30155;52.164;21.236;2023-08-12T13:21:39;100894.98;;;30.42;29.54
44453;BME280;30155;52.164;21.236;2023-08-12T13:26:30;100889.48;;;30.53;30.53
44453;BME280;30155;52.164;21.236;2023-08-12T13:31:21;100890.94;;;30.58;31.13
44453;BME280;30155;52.164;21.236;2023-08-12T13:36:13;100891.16;;;30.58;30.14
44453;BME280;30155;52.164;21.236;2023-08-12T13:41:04;100885.48;;;30.43;30.00
44453;BME280;30155;52.164;21.236;2023-08-12T13:45:56;100883.10;;;30.41;29.53
44453;BME280;30155;52.164;21.236;2023-08-12T13:50:47;100878.11;;;30.40;30.41
44453;BME280;30155;52.164;21.236;2023-08-12T13:55:41;100876.72;;;30.54;29.60
44453;BME280;30155;52.164;21.236;2023-08-12T14:00:32;100875.19;;;30.61;29.80
44453;BME280;30155;52.164;21.236;2023-08-12T14:05:24;100870.51;;;30.54;29.56
44453;BME280;30155;52.164;21.236;2023-08-12T14:10:15;100868.46;;;30.49;29.72
44453;BME280;30155;52.164;21.236;2023-08-12T14:15:07;100864.25;;;30.36;29.04
44453;BME280;30155;52.164;21.236;2023-08-12T14:19:59;100860.07;;;30.28;30.40
44453;BME280;30155;52.164;21.236;2023-08-12T14:24:50;100853.46;;;30.29;29.84
44453;BME280;30155;52.164;21.236;2023-08-12T14:29:42;100851.12;;;30.26;29.89
44453;BME280;30155;52.164;21.236;2023-08-12T14:34:33;100850.52;;;30.24;30.21
44453;BME280;30155;52.164;21.236;2023-08-12T14:39:25;100842.71;;;30.18;29.41
44453;BME280;30155;52.164;21.236;2023-08-12T14:44:17;100838.85;;;30.17;30.02
44453;BME280;30155;52.164;21.236;2023-08-12T14:49:09;100838.23;;;30.23;30.21
44453;BME280;30155;52.164;21.236;2023-08-12T14:54:00;100831.25;;;30.07;29.60
44453;BME280;30155;52.164;21.236;2023-08-12T14:58:52;100820.16;;;29.98;30.46
44453;BME280;30155;52.164;21.236;2023-08-12T15:03:43;100818.11;;;29.96;30.34
44453;BME280;30155;52.164;21.236;2023-08-12T15:08:35;100818.21;;;29.89;29.92
44453;BME280;30155;52.164;21.236;2023-08-12T15:13:26;100818.48;;;29.73;29.90
44453;BME280;30155;52.164;21.236;2023-08-12T15:18:18;100819.09;;;29.63;30.17
44453;BME280;30155;52.164;21.236;2023-08-12T15:23:09;100811.65;;;29.65;30.31
44453;BME280;30155;52.164;21.236;2023-08-12T15:28:01;100805.52;;;29.65;31.10
44453;BME280;30155;52.164;21.236;2023-08-12T15:32:55;100805.86;;;29.54;30.81
44453;BME280;30155;52.164;21.236;2023-08-12T15:37:47;100801.86;;;29.23;30.80
44453;BME280;30155;52.164;21.236;2023-08-12T15:42:39;100797.30;;;28.94;31.50
44453;BME280;30155;52.164;21.236;2023-08-12T15:47:31;100797.40;;;28.93;31.58
44453;BME280;30155;52.164;21.236;2023-08-12T15:52:23;100800.03;;;28.90;32.02
44453;BME280;30155;52.164;21.236;2023-08-12T15:57:14;100795.48;;;28.85;32.12
44453;BME280;30155;52.164;21.236;2023-08-12T16:02:06;100798.83;;;28.83;31.98
44453;BME280;30155;52.164;21.236;2023-08-12T16:07:01;100794.41;;;28.73;32.01
44453;BME280;30155;52.164;21.236;2023-08-12T16:11:52;100789.27;;;28.70;32.69
44453;BME280;30155;52.164;21.236;2023-08-12T16:16:47;100787.60;;;28.62;33.56
44453;BME280;30155;52.164;21.236;2023-08-12T16:42:26;100778.16;;;27.63;36.10
44453;BME280;30155;52.164;21.236;2023-08-12T17:01:25;100777.66;;;26.08;38.83
44453;BME280;30155;52.164;21.236;2023-08-12T17:06:30;100777.30;;;25.49;39.68
44453;BME280;30155;52.164;21.236;2023-08-12T17:11:22;100778.45;;;24.97;40.67
44453;BME280;30155;52.164;21.236;2023-08-12T17:16:13;100771.88;;;24.49;41.16
44453;BME280;30155;52.164;21.236;2023-08-12T17:21:05;100774.73;;;24.08;41.85
44453;BME280;30155;52.164;21.236;2023-08-12T17:25:56;100775.77;;;23.70;42.19
44453;BME280;30155;52.164;21.236;2023-08-12T17:30:48;100780.13;;;23.37;42.73
44453;BME280;30155;52.164;21.236;2023-08-12T17:35:39;100781.24;;;23.09;43.19
44453;BME280;30155;52.164;21.236;2023-08-12T17:40:32;100783.71;;;22.82;43.95
44453;BME280;30155;52.164;21.236;2023-08-12T17:45:23;100785.95;;;22.57;44.49
44453;BME280;30155;52.164;21.236;2023-08-12T17:50:15;100783.10;;;22.29;44.75
44453;BME280;30155;52.164;21.236;2023-08-12T17:55:06;100780.21;;;22.01;45.19
44453;BME280;30155;52.164;21.236;2023-08-12T17:59:58;100774.46;;;21.73;45.96
44453;BME280;30155;52.164;21.236;2023-08-12T18:04:49;100780.01;;;21.51;46.62
44453;BME280;30155;52.164;21.236;2023-08-12T18:09:41;100783.02;;;21.37;47.19
44453;BME280;30155;52.164;21.236;2023-08-12T18:14:32;100780.98;;;21.20;47.76
44453;BME280;30155;52.164;21.236;2023-08-12T18:19:23;100782.98;;;21.04;48.53
44453;BME280;30155;52.164;21.236;2023-08-12T18:24:15;100782.79;;;20.83;48.84
44453;BME280;30155;52.164;21.236;2023-08-12T18:29:06;100786.16;;;20.59;48.82
44453;BME280;30155;52.164;21.236;2023-08-12T18:33:58;100788.51;;;20.41;49.26
44453;BME280;30155;52.164;21.236;2023-08-12T18:38:49;100793.80;;;20.25;49.92
44453;BME280;30155;52.164;21.236;2023-08-12T18:43:41;100797.05;;;20.12;50.35
44453;BME280;30155;52.164;21.236;2023-08-12T18:48:32;100794.70;;;19.99;50.76
44453;BME280;30155;52.164;21.236;2023-08-12T18:53:23;100794.96;;;19.86;51.44
44453;BME280;30155;52.164;21.236;2023-08-12T18:58:15;100794.48;;;19.74;51.79
44453;BME280;30155;52.164;21.236;2023-08-12T19:03:06;100803.56;;;19.58;52.20
44453;BME280;30155;52.164;21.236;2023-08-12T19:07:58;100803.32;;;19.43;53.11
44453;BME280;30155;52.164;21.236;2023-08-12T19:12:49;100810.02;;;19.32;53.56
44453;BME280;30155;52.164;21.236;2023-08-12T19:17:41;100809.31;;;19.22;53.82
44453;BME280;30155;52.164;21.236;2023-08-12T19:22:32;100811.80;;;19.09;54.41
44453;BME280;30155;52.164;21.236;2023-08-12T19:27:23;100809.33;;;19.00;54.70
44453;BME280;30155;52.164;21.236;2023-08-12T19:32:15;100808.08;;;18.90;55.11
44453;BME280;30155;52.164;21.236;2023-08-12T19:37:07;100806.98;;;18.81;55.34
44453;BME280;30155;52.164;21.236;2023-08-12T19:41:58;100801.89;;;18.69;55.37
44453;BME280;30155;52.164;21.236;2023-08-12T19:46:49;100800.11;;;18.59;55.75
44453;BME280;30155;52.164;21.236;2023-08-12T19:51:41;100800.34;;;18.43;56.07
44453;BME280;30155;52.164;21.236;2023-08-12T19:56:32;100799.61;;;18.32;56.19
44453;BME280;30155;52.164;21.236;2023-08-12T20:01:24;100799.23;;;18.20;56.28
44453;BME280;30155;52.164;21.236;2023-08-12T20:06:15;100798.84;;;18.10;56.74
44453;BME280;30155;52.164;21.236;2023-08-12T20:11:06;100797.17;;;18.03;57.02
44453;BME280;30155;52.164;21.236;2023-08-12T20:15:58;100798.87;;;17.94;57.10
44453;BME280;30155;52.164;21.236;2023-08-12T20:20:50;100797.38;;;17.84;57.31
44453;BME280;30155;52.164;21.236;2023-08-12T20:25:41;100794.51;;;17.74;57.52
44453;BME280;30155;52.164;21.236;2023-08-12T20:30:33;100800.02;;;17.67;57.74
44453;BME280;30155;52.164;21.236;2023-08-12T20:35:24;100800.50;;;17.55;57.93
44453;BME280;30155;52.164;21.236;2023-08-12T20:40:16;100800.60;;;17.44;58.30
44453;BME280;30155;52.164;21.236;2023-08-12T20:45:08;100801.26;;;17.31;58.34
44453;BME280;30155;52.164;21.236;2023-08-12T20:50:00;100799.27;;;17.18;58.72
44453;BME280;30155;52.164;21.236;2023-08-12T20:54:52;100800.06;;;17.07;58.89
44453;BME280;30155;52.164;21.236;2023-08-12T20:59:44;100801.90;;;16.98;59.07
44453;BME280;30155;52.164;21.236;2023-08-12T21:04:37;100800.95;;;16.87;59.35
44453;BME280;30155;52.164;21.236;2023-08-12T21:09:28;100798.37;;;16.76;59.63
44453;BME280;30155;52.164;21.236;2023-08-12T21:14:20;100799.10;;;16.68;60.03
44453;BME280;30155;52.164;21.236;2023-08-12T21:19:12;100797.25;;;16.57;60.12
44453;BME280;30155;52.164;21.236;2023-08-12T21:24:04;100789.45;;;16.49;60.32
44453;BME280;30155;52.164;21.236;2023-08-12T21:28:56;100782.68;;;16.37;60.55
44453;BME280;30155;52.164;21.236;2023-08-12T21:33:47;100780.27;;;16.30;60.75
44453;BME280;30155;52.164;21.236;2023-08-12T21:38:38;100778.39;;;16.24;60.86
44453;BME280;30155;52.164;21.236;2023-08-12T21:43:30;100773.00;;;16.18;61.20
44453;BME280;30155;52.164;21.236;2023-08-12T21:48:21;100769.52;;;16.13;61.38
44453;BME280;30155;52.164;21.236;2023-08-12T21:53:13;100768.69;;;16.06;61.64
44453;BME280;30155;52.164;21.236;2023-08-12T21:58:04;100765.57;;;15.98;61.67
44453;BME280;30155;52.164;21.236;2023-08-12T22:02:55;100766.32;;;15.88;61.90
44453;BME280;30155;52.164;21.236;2023-08-12T22:07:47;100767.05;;;15.78;62.11
44453;BME280;30155;52.164;21.236;2023-08-12T22:12:38;100772.48;;;15.66;62.03
44453;BME280;30155;52.164;21.236;2023-08-12T22:17:31;100781.59;;;15.58;62.43
44453;BME280;30155;52.164;21.236;2023-08-12T22:22:23;100779.69;;;15.54;62.64
44453;BME280;30155;52.164;21.236;2023-08-12T22:27:14;100775.30;;;15.55;62.80
44453;BME280;30155;52.164;21.236;2023-08-12T22:32:06;100767.10;;;15.52;62.82
44453;BME280;30155;52.164;21.236;2023-08-12T22:36:57;100767.45;;;15.48;62.96
44453;BME280;30155;52.164;21.236;2023-08-12T22:41:49;100770.96;;;15.41;63.04
44453;BME280;30155;52.164;21.236;2023-08-12T22:46:40;100770.80;;;15.35;63.07
44453;BME280;30155;52.164;21.236;2023-08-12T22:51:32;100774.66;;;15.27;63.15
44453;BME280;30155;52.164;21.236;2023-08-12T22:56:23;100764.38;;;15.19;63.30
44453;BME280;30155;52.164;21.236;2023-08-12T23:01:15;100755.30;;;15.12;63.34
44453;BME280;30155;52.164;21.236;2023-08-12T23:06:07;100756.70;;;15.05;63.58
44453;BME280;30155;52.164;21.236;2023-08-12T23:10:58;100750.42;;;15.02;63.73
44453;BME280;30155;52.164;21.236;2023-08-12T23:15:50;100744.50;;;14.98;63.89
44453;BME280;30155;52.164;21.236;2023-08-12T23:20:41;100731.05;;;14.94;63.94
44453;BME280;30155;52.164;21.236;2023-08-12T23:25:33;100725.13;;;14.85;64.03
44453;BME280;30155;52.164;21.236;2023-08-12T23:30:24;100724.26;;;14.79;64.24
44453;BME280;30155;52.164;21.236;2023-08-12T23:35:16;100723.22;;;14.75;64.37
44453;BME280;30155;52.164;21.236;2023-08-12T23:40:09;100720.06;;;14.69;64.57
44453;BME280;30155;52.164;21.236;2023-08-12T23:45:03;100711.34;;;14.68;64.71
44453;BME280;30155;52.164;21.236;2023-08-12T23:49:54;100713.43;;;14.63;64.65
44453;BME280;30155;52.164;21.236;2023-08-12T23:54:46;100720.25;;;14.59;64.75
44453;BME280;30155;52.164;21.236;2023-08-12T23:59:37;100725.79;;;14.53;64.82
